sensor_id;sensor_type;location;lat;lon;timestamp;temperature;humidity
11536;DHT22;5824;49.336;8.652;2023-10-31T00:01:11;12.70;1.00
11536;DHT22;5824;49.336;8.652;2023-10-31T00:03:36;12.60;1.00
11536;DHT22;5824;49.336;8.652;2023-10-31T00:06:02;12.60;1.00
11536;DHT22;5824;49.336;8.652;2023-10-31T00:08:27;12.40;1.00
11536;DHT22;5824;49.336;8.652;2023-10-31T00:10:53;12.40;1.00
11536;DHT22;5824;49.336;8.652;2023-10-31T00:13:18;12.30;1.00
11536;DHT22;5824;49.336;8.652;2023-10-31T00:15:44;14.10;1.00
11536;DHT22;5824;49.336;8.652;2023-10-31T00:18:09;12.30;1.00
11536;DHT22;5824;49.336;8.652;2023-10-31T00:20:35;12.20;1.00
11536;DHT22;5824;49.336;8.652;2023-10-31T00:23:00;12.20;1.00
11536;DHT22;5824;49.336;8.652;2023-10-31T00:25:26;12.10;1.00
11536;DHT22;5824;49.336;8.652;2023-10-31T00:27:51;11.90;1.00
11536;DHT22;5824;49.336;8.652;2023-10-31T00:30:17;11.90;1.00
11536;DHT22;5824;49.336;8.652;2023-10-31T00:32:42;11.90;1.00
11536;DHT22;5824;49.336;8.652;2023-10-31T00:35:08;11.80;1.00
11536;DHT22;5824;49.336;8.652;2023-10-31T00:37:34;11.80;1.00
11536;DHT22;5824;49.336;8.652;2023-10-31T00:39:59;11.70;1.00
11536;DHT22;5824;49.336;8.652;2023-10-31T00:42:25;11.70;1.00
11536;DHT22;5824;49.336;8.652;2023-10-31T00:44:50;11.70;1.00
11536;DHT22;5824;49.336;8.652;2023-10-31T00:47:16;11.70;1.00
11536;DHT22;5824;49.336;8.652;2023-10-31T00:49:43;11.60;1.00
11536;DHT22;5824;49.336;8.652;2023-10-31T00:52:08;11.60;1.00
11536;DHT22;5824;49.336;8.652;2023-10-31T00:54:34;11.60;1.00
11536;DHT22;5824;49.336;8.652;2023-10-31T00:56:59;11.60;1.00
11536;DHT22;5824;49.336;8.652;2023-10-31T00:59:25;11.60;1.00
11536;DHT22;5824;49.336;8.652;2023-10-31T01:01:50;11.50;1.00
11536;DHT22;5824;49.336;8.652;2023-10-31T01:04:16;11.80;1.00
11536;DHT22;5824;49.336;8.652;2023-10-31T01:06:42;11.50;1.00
11536;DHT22;5824;49.336;8.652;2023-10-31T01:09:11;11.40;1.00
11536;DHT22;5824;49.336;8.652;2023-10-31T01:11:36;11.40;1.00
11536;DHT22;5824;49.336;8.652;2023-10-31T01:14:03;11.40;1.00
11536;DHT22;5824;49.336;8.652;2023-10-31T01:16:28;11.40;1.00
11536;DHT22;5824;49.336;8.652;2023-10-31T01:18:54;11.40;1.00
11536;DHT22;5824;49.336;8.652;2023-10-31T01:21:19;11.40;1.00
11536;DHT22;5824;49.336;8.652;2023-10-31T01:23:45;11.40;1.00
11536;DHT22;5824;49.336;8.652;2023-10-31T01:26:10;11.40;1.00
11536;DHT22;5824;49.336;8.652;2023-10-31T01:28:36;11.40;1.00
11536;DHT22;5824;49.336;8.652;2023-10-31T01:31:01;11.30;1.00
11536;DHT22;5824;49.336;8.652;2023-10-31T01:33:27;11.30;1.00
11536;DHT22;5824;49.336;8.652;2023-10-31T01:35:52;11.30;1.00
11536;DHT22;5824;49.336;8.652;2023-10-31T01:38:18;11.30;1.00
11536;DHT22;5824;49.336;8.652;2023-10-31T01:40:43;11.20;1.00
11536;DHT22;5824;49.336;8.652;2023-10-31T01:43:09;11.20;1.00
11536;DHT22;5824;49.336;8.652;2023-10-31T01:45:35;11.30;1.00
11536;DHT22;5824;49.336;8.652;2023-10-31T01:48:00;11.30;1.00
11536;DHT22;5824;49.336;8.652;2023-10-31T01:50:26;11.20;1.00
11536;DHT22;5824;49.336;8.652;2023-10-31T01:52:52;11.20;1.00
11536;DHT22;5824;49.336;8.652;2023-10-31T01:55:18;11.30;1.00
11536;DHT22;5824;49.336;8.652;2023-10-31T01:57:45;11.40;1.00
11536;DHT22;5824;49.336;8.652;2023-10-31T02:00:13;11.40;1.00
11536;DHT22;5824;49.336;8.652;2023-10-31T02:02:40;11.40;1.00
11536;DHT22;5824;49.336;8.652;2023-10-31T02:05:09;11.40;1.00
11536;DHT22;5824;49.336;8.652;2023-10-31T02:07:35;11.40;1.00
11536;DHT22;5824;49.336;8.652;2023-10-31T02:10:00;11.40;1.00
11536;DHT22;5824;49.336;8.652;2023-10-31T02:12:36;11.40;1.00
11536;DHT22;5824;49.336;8.652;2023-10-31T02:15:02;11.40;1.00
11536;DHT22;5824;49.336;8.652;2023-10-31T02:17:28;11.40;1.00
11536;DHT22;5824;49.336;8.652;2023-10-31T02:19:54;11.40;1.00
11536;DHT22;5824;49.336;8.652;2023-10-31T02:22:20;11.40;1.00
11536;DHT22;5824;49.336;8.652;2023-10-31T02:24:45;11.40;1.00
11536;DHT22;5824;49.336;8.652;2023-10-31T02:27:11;11.40;1.00
11536;DHT22;5824;49.336;8.652;2023-10-31T02:29:38;11.40;1.00
11536;DHT22;5824;49.336;8.652;2023-10-31T02:32:04;11.40;1.00
11536;DHT22;5824;49.336;8.652;2023-10-31T02:34:30;11.40;1.00
11536;DHT22;5824;49.336;8.652;2023-10-31T02:36:55;11.30;1.00
11536;DHT22;5824;49.336;8.652;2023-10-31T02:39:21;11.30;1.00
11536;DHT22;5824;49.336;8.652;2023-10-31T02:41:46;13.00;1.00
11536;DHT22;5824;49.336;8.652;2023-10-31T02:44:14;11.20;1.00
11536;DHT22;5824;49.336;8.652;2023-10-31T02:46:40;11.20;1.00
11536;DHT22;5824;49.336;8.652;2023-10-31T02:49:05;11.10;1.00
11536;DHT22;5824;49.336;8.652;2023-10-31T02:51:31;11.20;1.00
11536;DHT22;5824;49.336;8.652;2023-10-31T02:53:56;11.10;1.00
11536;DHT22;5824;49.336;8.652;2023-10-31T02:56:22;11.20;1.00
11536;DHT22;5824;49.336;8.652;2023-10-31T02:58:48;11.20;1.00
11536;DHT22;5824;49.336;8.652;2023-10-31T03:01:13;11.20;1.00
11536;DHT22;5824;49.336;8.652;2023-10-31T03:03:39;11.20;1.00
11536;DHT22;5824;49.336;8.652;2023-10-31T03:06:05;11.20;1.00
11536;DHT22;5824;49.336;8.652;2023-10-31T03:08:31;11.10;1.00
11536;DHT22;5824;49.336;8.652;2023-10-31T03:10:56;11.10;1.00
11536;DHT22;5824;49.336;8.652;2023-10-31T03:13:22;11.00;1.00
11536;DHT22;5824;49.336;8.652;2023-10-31T03:15:48;11.00;1.00
11536;DHT22;5824;49.336;8.652;2023-10-31T03:18:13;11.00;1.00
11536;DHT22;5824;49.336;8.652;2023-10-31T03:20:45;10.90;1.00
11536;DHT22;5824;49.336;8.652;2023-10-31T03:23:12;10.90;1.00
11536;DHT22;5824;49.336;8.652;2023-10-31T03:25:37;10.90;1.00
11536;DHT22;5824;49.336;8.652;2023-10-31T03:28:03;10.80;1.00
11536;DHT22;5824;49.336;8.652;2023-10-31T03:30:28;10.80;1.00
11536;DHT22;5824;49.336;8.652;2023-10-31T03:32:54;10.70;1.00
11536;DHT22;5824;49.336;8.652;2023-10-31T03:35:19;10.70;1.00
11536;DHT22;5824;49.336;8.652;2023-10-31T03:37:45;10.70;1.00
11536;DHT22;5824;49.336;8.652;2023-10-31T03:40:11;10.70;1.00
11536;DHT22;5824;49.336;8.652;2023-10-31T03:42:36;10.70;1.00
11536;DHT22;5824;49.336;8.652;2023-10-31T03:45:02;10.80;1.00
11536;DHT22;5824;49.336;8.652;2023-10-31T03:47:28;10.70;1.00
11536;DHT22;5824;49.336;8.652;2023-10-31T03:49:53;10.70;1.00
11536;DHT22;5824;49.336;8.652;2023-10-31T03:52:19;10.70;1.00
11536;DHT22;5824;49.336;8.652;2023-10-31T03:54:45;10.80;1.00
11536;DHT22;5824;49.336;8.652;2023-10-31T03:57:10;10.80;1.00
11536;DHT22;5824;49.336;8.652;2023-10-31T03:59:39;10.80;1.00
11536;DHT22;5824;49.336;8.652;2023-10-31T04:02:04;10.90;1.00
11536;DHT22;5824;49.336;8.652;2023-10-31T04:04:30;10.90;1.00
11536;DHT22;5824;49.336;8.652;2023-10-31T04:06:55;11.00;1.00
11536;DHT22;5824;49.336;8.652;2023-10-31T04:09:21;11.00;1.00
11536;DHT22;5824;49.336;8.652;2023-10-31T04:11:46;11.10;1.00
11536;DHT22;5824;49.336;8.652;2023-10-31T04:14:12;11.10;1.00
11536;DHT22;5824;49.336;8.652;2023-10-31T04:16:39;11.20;1.00
11536;DHT22;5824;49.336;8.652;2023-10-31T04:19:05;11.20;1.00
11536;DHT22;5824;49.336;8.652;2023-10-31T04:21:30;11.20;1.00
11536;DHT22;5824;49.336;8.652;2023-10-31T04:23:56;11.30;1.00
11536;DHT22;5824;49.336;8.652;2023-10-31T04:26:21;11.30;1.00
11536;DHT22;5824;49.336;8.652;2023-10-31T04:28:47;11.30;1.00
11536;DHT22;5824;49.336;8.652;2023-10-31T04:31:12;11.30;1.00
11536;DHT22;5824;49.336;8.652;2023-10-31T04:33:38;11.40;1.00
11536;DHT22;5824;49.336;8.652;2023-10-31T04:36:04;11.40;1.00
11536;DHT22;5824;49.336;8.652;2023-10-31T04:38:29;11.40;1.00
11536;DHT22;5824;49.336;8.652;2023-10-31T04:40:55;11.40;1.00
11536;DHT22;5824;49.336;8.652;2023-10-31T04:43:20;11.40;1.00
11536;DHT22;5824;49.336;8.652;2023-10-31T04:45:46;11.40;1.00
11536;DHT22;5824;49.336;8.652;2023-10-31T04:48:11;11.40;1.00
11536;DHT22;5824;49.336;8.652;2023-10-31T04:50:37;11.40;1.00
11536;DHT22;5824;49.336;8.652;2023-10-31T04:53:02;11.40;1.00
11536;DHT22;5824;49.336;8.652;2023-10-31T04:55:28;11.40;1.00
11536;DHT22;5824;49.336;8.652;2023-10-31T04:57:53;11.40;1.00
11536;DHT22;5824;49.336;8.652;2023-10-31T05:00:19;11.50;1.00
11536;DHT22;5824;49.336;8.652;2023-10-31T05:02:44;11.50;1.00
11536;DHT22;5824;49.336;8.652;2023-10-31T05:05:10;11.50;1.00
11536;DHT22;5824;49.336;8.652;2023-10-31T05:07:35;11.50;1.00
11536;DHT22;5824;49.336;8.652;2023-10-31T05:10:01;11.50;1.00
11536;DHT22;5824;49.336;8.652;2023-10-31T05:12:26;11.50;1.00
11536;DHT22;5824;49.336;8.652;2023-10-31T05:14:52;11.50;1.00
11536;DHT22;5824;49.336;8.652;2023-10-31T05:17:17;11.60;1.00
11536;DHT22;5824;49.336;8.652;2023-10-31T05:19:43;11.60;1.00
11536;DHT22;5824;49.336;8.652;2023-10-31T05:22:08;11.60;1.00
11536;DHT22;5824;49.336;8.652;2023-10-31T05:24:34;11.60;1.00
11536;DHT22;5824;49.336;8.652;2023-10-31T05:27:01;11.50;1.00
11536;DHT22;5824;49.336;8.652;2023-10-31T05:29:26;11.60;1.00
11536;DHT22;5824;49.336;8.652;2023-10-31T05:31:52;11.60;1.00
11536;DHT22;5824;49.336;8.652;2023-10-31T05:34:17;11.70;1.00
11536;DHT22;5824;49.336;8.652;2023-10-31T05:36:43;11.70;1.00
11536;DHT22;5824;49.336;8.652;2023-10-31T05:39:09;11.70;1.00
11536;DHT22;5824;49.336;8.652;2023-10-31T05:41:35;11.60;1.00
11536;DHT22;5824;49.336;8.652;2023-10-31T05:44:01;11.70;1.00
11536;DHT22;5824;49.336;8.652;2023-10-31T05:46:26;11.60;1.00
11536;DHT22;5824;49.336;8.652;2023-10-31T05:48:52;11.60;1.00
11536;DHT22;5824;49.336;8.652;2023-10-31T05:51:18;11.60;1.00
11536;DHT22;5824;49.336;8.652;2023-10-31T05:53:45;11.50;1.00
11536;DHT22;5824;49.336;8.652;2023-10-31T05:56:13;11.50;1.00
11536;DHT22;5824;49.336;8.652;2023-10-31T05:58:39;11.40;1.00
11536;DHT22;5824;49.336;8.652;2023-10-31T06:01:05;11.40;1.00
11536;DHT22;5824;49.336;8.652;2023-10-31T06:03:31;11.40;1.00
11536;DHT22;5824;49.336;8.652;2023-10-31T06:05:56;11.50;1.00
11536;DHT22;5824;49.336;8.652;2023-10-31T06:08:22;11.50;1.00
11536;DHT22;5824;49.336;8.652;2023-10-31T06:10:50;11.50;1.00
11536;DHT22;5824;49.336;8.652;2023-10-31T06:13:16;11.60;1.00
11536;DHT22;5824;49.336;8.652;2023-10-31T06:15:42;11.60;1.00
11536;DHT22;5824;49.336;8.652;2023-10-31T06:18:07;11.60;1.00
11536;DHT22;5824;49.336;8.652;2023-10-31T06:20:33;11.60;1.00
11536;DHT22;5824;49.336;8.652;2023-10-31T06:23:00;11.60;1.00
11536;DHT22;5824;49.336;8.652;2023-10-31T06:25:26;11.60;1.00
11536;DHT22;5824;49.336;8.652;2023-10-31T06:27:51;11.60;1.00
11536;DHT22;5824;49.336;8.652;2023-10-31T06:30:17;11.60;1.00
11536;DHT22;5824;49.336;8.652;2023-10-31T06:32:43;12.20;1.00
11536;DHT22;5824;49.336;8.652;2023-10-31T06:35:08;12.30;1.00
11536;DHT22;5824;49.336;8.652;2023-10-31T06:37:34;12.30;1.00
11536;DHT22;5824;49.336;8.652;2023-10-31T06:40:01;12.20;1.00
11536;DHT22;5824;49.336;8.652;2023-10-31T06:42:26;12.20;1.00
11536;DHT22;5824;49.336;8.652;2023-10-31T06:44:52;12.30;1.00
11536;DHT22;5824;49.336;8.652;2023-10-31T06:47:18;12.30;1.00
11536;DHT22;5824;49.336;8.652;2023-10-31T06:49:44;13.30;1.00
11536;DHT22;5824;49.336;8.652;2023-10-31T06:52:09;12.40;1.00
11536;DHT22;5824;49.336;8.652;2023-10-31T06:54:35;12.50;1.00
11536;DHT22;5824;49.336;8.652;2023-10-31T06:57:00;12.60;1.00
11536;DHT22;5824;49.336;8.652;2023-10-31T06:59:27;12.60;1.00
11536;DHT22;5824;49.336;8.652;2023-10-31T07:01:54;12.40;1.00
11536;DHT22;5824;49.336;8.652;2023-10-31T07:04:20;12.30;1.00
11536;DHT22;5824;49.336;8.652;2023-10-31T07:06:45;12.20;1.00
11536;DHT22;5824;49.336;8.652;2023-10-31T07:09:11;12.10;1.00
11536;DHT22;5824;49.336;8.652;2023-10-31T07:11:36;12.00;1.00
11536;DHT22;5824;49.336;8.652;2023-10-31T07:14:02;12.00;1.00
11536;DHT22;5824;49.336;8.652;2023-10-31T07:16:28;11.90;1.00
11536;DHT22;5824;49.336;8.652;2023-10-31T07:18:54;11.90;1.00
11536;DHT22;5824;49.336;8.652;2023-10-31T07:21:20;11.90;1.00
11536;DHT22;5824;49.336;8.652;2023-10-31T07:23:45;12.00;1.00
11536;DHT22;5824;49.336;8.652;2023-10-31T07:26:11;12.00;1.00
11536;DHT22;5824;49.336;8.652;2023-10-31T07:28:36;12.10;1.00
11536;DHT22;5824;49.336;8.652;2023-10-31T07:31:02;12.10;1.00
11536;DHT22;5824;49.336;8.652;2023-10-31T07:33:27;12.10;1.00
11536;DHT22;5824;49.336;8.652;2023-10-31T07:35:53;12.10;1.00
11536;DHT22;5824;49.336;8.652;2023-10-31T07:38:18;12.10;1.00
11536;DHT22;5824;49.336;8.652;2023-10-31T07:40:44;13.10;1.00
11536;DHT22;5824;49.336;8.652;2023-10-31T07:43:09;12.20;1.00
11536;DHT22;5824;49.336;8.652;2023-10-31T07:45:35;12.20;1.00
11536;DHT22;5824;49.336;8.652;2023-10-31T07:48:01;12.30;1.00
11536;DHT22;5824;49.336;8.652;2023-10-31T07:50:27;12.30;1.00
11536;DHT22;5824;49.336;8.652;2023-10-31T07:52:52;12.30;1.00
11536;DHT22;5824;49.336;8.652;2023-10-31T07:55:18;12.30;1.00
11536;DHT22;5824;49.336;8.652;2023-10-31T07:57:44;12.30;1.00
11536;DHT22;5824;49.336;8.652;2023-10-31T08:00:11;12.40;1.00
11536;DHT22;5824;49.336;8.652;2023-10-31T08:02:37;12.40;1.00
11536;DHT22;5824;49.336;8.652;2023-10-31T08:05:02;12.30;1.00
11536;DHT22;5824;49.336;8.652;2023-10-31T08:07:28;12.40;1.00
11536;DHT22;5824;49.336;8.652;2023-10-31T08:09:56;12.40;1.00
11536;DHT22;5824;49.336;8.652;2023-10-31T08:12:21;12.40;1.00
11536;DHT22;5824;49.336;8.652;2023-10-31T08:14:47;12.50;1.00
11536;DHT22;5824;49.336;8.652;2023-10-31T08:17:13;12.60;1.00
11536;DHT22;5824;49.336;8.652;2023-10-31T08:19:39;12.70;1.00
11536;DHT22;5824;49.336;8.652;2023-10-31T08:22:04;12.90;1.00
11536;DHT22;5824;49.336;8.652;2023-10-31T08:24:29;13.00;1.00
11536;DHT22;5824;49.336;8.652;2023-10-31T08:26:55;13.00;1.00
11536;DHT22;5824;49.336;8.652;2023-10-31T08:29:21;13.00;1.00
11536;DHT22;5824;49.336;8.652;2023-10-31T08:31:46;12.90;1.00
11536;DHT22;5824;49.336;8.652;2023-10-31T08:34:12;12.90;1.00
11536;DHT22;5824;49.336;8.652;2023-10-31T08:36:37;13.00;1.00
11536;DHT22;5824;49.336;8.652;2023-10-31T08:39:03;13.10;1.00
11536;DHT22;5824;49.336;8.652;2023-10-31T08:41:29;13.10;1.00
11536;DHT22;5824;49.336;8.652;2023-10-31T08:43:54;13.10;1.00
11536;DHT22;5824;49.336;8.652;2023-10-31T08:46:20;13.30;1.00
11536;DHT22;5824;49.336;8.652;2023-10-31T08:48:45;13.30;1.00
11536;DHT22;5824;49.336;8.652;2023-10-31T08:51:11;13.40;1.00
11536;DHT22;5824;49.336;8.652;2023-10-31T08:53:36;13.40;1.00
11536;DHT22;5824;49.336;8.652;2023-10-31T08:56:02;13.60;1.00
11536;DHT22;5824;49.336;8.652;2023-10-31T08:58:28;13.70;1.00
11536;DHT22;5824;49.336;8.652;2023-10-31T09:00:54;13.80;1.00
11536;DHT22;5824;49.336;8.652;2023-10-31T09:03:20;15.60;1.00
11536;DHT22;5824;49.336;8.652;2023-10-31T09:05:45;14.40;1.00
11536;DHT22;5824;49.336;8.652;2023-10-31T09:08:11;14.90;1.00
11536;DHT22;5824;49.336;8.652;2023-10-31T09:10:37;15.10;1.00
11536;DHT22;5824;49.336;8.652;2023-10-31T09:13:03;15.10;1.00
11536;DHT22;5824;49.336;8.652;2023-10-31T09:15:29;15.50;1.00
11536;DHT22;5824;49.336;8.652;2023-10-31T09:17:54;16.50;1.00
11536;DHT22;5824;49.336;8.652;2023-10-31T09:20:20;17.50;1.00
11536;DHT22;5824;49.336;8.652;2023-10-31T09:22:45;18.50;1.00
11536;DHT22;5824;49.336;8.652;2023-10-31T09:25:11;18.60;1.00
11536;DHT22;5824;49.336;8.652;2023-10-31T09:27:40;17.90;1.00
11536;DHT22;5824;49.336;8.652;2023-10-31T09:30:06;17.40;1.00
11536;DHT22;5824;49.336;8.652;2023-10-31T09:32:32;17.80;1.00
11536;DHT22;5824;49.336;8.652;2023-10-31T09:34:57;19.60;1.00
11536;DHT22;5824;49.336;8.652;2023-10-31T09:37:23;19.60;1.00
11536;DHT22;5824;49.336;8.652;2023-10-31T09:39:48;20.30;1.00
11536;DHT22;5824;49.336;8.652;2023-10-31T09:42:14;20.50;1.00
11536;DHT22;5824;49.336;8.652;2023-10-31T09:44:39;20.00;1.00
11536;DHT22;5824;49.336;8.652;2023-10-31T09:47:06;20.80;1.00
11536;DHT22;5824;49.336;8.652;2023-10-31T09:49:32;21.60;1.00
11536;DHT22;5824;49.336;8.652;2023-10-31T09:51:58;22.10;1.00
11536;DHT22;5824;49.336;8.652;2023-10-31T09:54:25;21.30;1.00
11536;DHT22;5824;49.336;8.652;2023-10-31T09:56:51;21.40;1.00
11536;DHT22;5824;49.336;8.652;2023-10-31T09:59:17;21.20;1.00
11536;DHT22;5824;49.336;8.652;2023-10-31T10:01:42;21.00;1.00
11536;DHT22;5824;49.336;8.652;2023-10-31T10:04:08;21.10;1.00
11536;DHT22;5824;49.336;8.652;2023-10-31T10:06:34;20.90;1.00
11536;DHT22;5824;49.336;8.652;2023-10-31T10:09:00;21.00;1.00
11536;DHT22;5824;49.336;8.652;2023-10-31T10:11:28;21.70;1.00
11536;DHT22;5824;49.336;8.652;2023-10-31T10:13:53;21.30;1.00
11536;DHT22;5824;49.336;8.652;2023-10-31T10:16:33;19.90;1.00
11536;DHT22;5824;49.336;8.652;2023-10-31T10:19:15;19.90;1.00
11536;DHT22;5824;49.336;8.652;2023-10-31T10:24:14;21.00;1.00
11536;DHT22;5824;49.336;8.652;2023-10-31T10:26:39;21.20;1.00
11536;DHT22;5824;49.336;8.652;2023-10-31T10:29:05;20.50;1.00
11536;DHT22;5824;49.336;8.652;2023-10-31T10:31:30;19.10;1.00
11536;DHT22;5824;49.336;8.652;2023-10-31T10:33:56;18.30;1.00
11536;DHT22;5824;49.336;8.652;2023-10-31T10:36:23;17.90;1.00
11536;DHT22;5824;49.336;8.652;2023-10-31T10:38:55;17.80;1.00
11536;DHT22;5824;49.336;8.652;2023-10-31T10:41:23;18.10;1.00
11536;DHT22;5824;49.336;8.652;2023-10-31T10:43:56;18.00;1.00
11536;DHT22;5824;49.336;8.652;2023-10-31T10:46:25;17.30;1.00
11536;DHT22;5824;49.336;8.652;2023-10-31T10:48:55;17.30;1.00
11536;DHT22;5824;49.336;8.652;2023-10-31T10:51:28;17.20;1.00
11536;DHT22;5824;49.336;8.652;2023-10-31T10:54:19;17.20;1.00
11536;DHT22;5824;49.336;8.652;2023-10-31T10:56:54;17.70;1.00
11536;DHT22;5824;49.336;8.652;2023-10-31T10:59:42;17.80;1.00
11536;DHT22;5824;49.336;8.652;2023-10-31T11:02:08;17.90;1.00
11536;DHT22;5824;49.336;8.652;2023-10-31T11:04:36;17.90;1.00
11536;DHT22;5824;49.336;8.652;2023-10-31T11:07:02;17.80;1.00
11536;DHT22;5824;49.336;8.652;2023-10-31T11:09:32;17.80;1.00
11536;DHT22;5824;49.336;8.652;2023-10-31T11:11:58;17.30;1.00
11536;DHT22;5824;49.336;8.652;2023-10-31T11:14:25;17.10;1.00
11536;DHT22;5824;49.336;8.652;2023-10-31T11:16:53;16.80;1.00
11536;DHT22;5824;49.336;8.652;2023-10-31T11:19:21;16.70;1.00
11536;DHT22;5824;49.336;8.652;2023-10-31T11:22:01;16.50;1.00
11536;DHT22;5824;49.336;8.652;2023-10-31T11:24:29;16.50;1.00
11536;DHT22;5824;49.336;8.652;2023-10-31T11:26:59;16.70;1.00
11536;DHT22;5824;49.336;8.652;2023-10-31T11:29:25;16.70;1.00
11536;DHT22;5824;49.336;8.652;2023-10-31T11:31:51;16.70;1.00
11536;DHT22;5824;49.336;8.652;2023-10-31T11:34:17;16.70;1.00
11536;DHT22;5824;49.336;8.652;2023-10-31T11:36:45;16.40;1.00
11536;DHT22;5824;49.336;8.652;2023-10-31T11:39:17;16.30;1.00
11536;DHT22;5824;49.336;8.652;2023-10-31T11:41:50;16.30;1.00
11536;DHT22;5824;49.336;8.652;2023-10-31T11:44:17;16.40;1.00
11536;DHT22;5824;49.336;8.652;2023-10-31T11:46:42;16.80;1.00
11536;DHT22;5824;49.336;8.652;2023-10-31T11:49:08;16.80;1.00
11536;DHT22;5824;49.336;8.652;2023-10-31T11:51:34;17.00;1.00
11536;DHT22;5824;49.336;8.652;2023-10-31T11:54:02;17.40;1.00
11536;DHT22;5824;49.336;8.652;2023-10-31T11:56:28;17.60;1.00
11536;DHT22;5824;49.336;8.652;2023-10-31T11:59:05;17.60;1.00
11536;DHT22;5824;49.336;8.652;2023-10-31T12:01:44;18.00;1.00
11536;DHT22;5824;49.336;8.652;2023-10-31T12:04:21;18.40;1.00
11536;DHT22;5824;49.336;8.652;2023-10-31T12:06:57;20.40;1.00
11536;DHT22;5824;49.336;8.652;2023-10-31T12:09:22;21.00;1.00
11536;DHT22;5824;49.336;8.652;2023-10-31T12:11:48;22.10;1.00
11536;DHT22;5824;49.336;8.652;2023-10-31T12:14:18;22.70;1.00
11536;DHT22;5824;49.336;8.652;2023-10-31T12:16:44;22.10;1.00
11536;DHT22;5824;49.336;8.652;2023-10-31T12:19:09;21.80;1.00
11536;DHT22;5824;49.336;8.652;2023-10-31T12:21:38;20.60;1.00
11536;DHT22;5824;49.336;8.652;2023-10-31T12:24:05;20.30;1.00
11536;DHT22;5824;49.336;8.652;2023-10-31T12:26:33;22.80;1.00
11536;DHT22;5824;49.336;8.652;2023-10-31T12:29:10;23.20;1.00
11536;DHT22;5824;49.336;8.652;2023-10-31T12:31:39;25.10;1.00
11536;DHT22;5824;49.336;8.652;2023-10-31T12:34:05;25.20;1.00
11536;DHT22;5824;49.336;8.652;2023-10-31T12:36:31;24.20;1.00
11536;DHT22;5824;49.336;8.652;2023-10-31T12:38:57;24.10;1.00
11536;DHT22;5824;49.336;8.652;2023-10-31T12:41:23;23.60;1.00
11536;DHT22;5824;49.336;8.652;2023-10-31T12:43:49;23.50;1.00
11536;DHT22;5824;49.336;8.652;2023-10-31T12:46:30;23.80;1.00
11536;DHT22;5824;49.336;8.652;2023-10-31T12:48:57;23.90;1.00
11536;DHT22;5824;49.336;8.652;2023-10-31T12:51:23;24.10;1.00
11536;DHT22;5824;49.336;8.652;2023-10-31T12:53:52;24.10;1.00
11536;DHT22;5824;49.336;8.652;2023-10-31T12:56:37;21.20;1.00
11536;DHT22;5824;49.336;8.652;2023-10-31T12:59:05;21.00;1.00
11536;DHT22;5824;49.336;8.652;2023-10-31T13:01:33;19.80;1.00
11536;DHT22;5824;49.336;8.652;2023-10-31T13:03:59;19.00;1.00
11536;DHT22;5824;49.336;8.652;2023-10-31T13:06:24;18.00;1.00
11536;DHT22;5824;49.336;8.652;2023-10-31T13:08:50;17.90;1.00
11536;DHT22;5824;49.336;8.652;2023-10-31T13:11:15;17.60;1.00
11536;DHT22;5824;49.336;8.652;2023-10-31T13:13:41;17.50;1.00
11536;DHT22;5824;49.336;8.652;2023-10-31T13:18:32;17.00;1.00
11536;DHT22;5824;49.336;8.652;2023-10-31T13:20:58;16.80;1.00
11536;DHT22;5824;49.336;8.652;2023-10-31T13:23:23;16.70;1.00
11536;DHT22;5824;49.336;8.652;2023-10-31T13:25:49;16.60;1.00
11536;DHT22;5824;49.336;8.652;2023-10-31T13:28:15;16.50;1.00
11536;DHT22;5824;49.336;8.652;2023-10-31T13:30:41;16.50;1.00
11536;DHT22;5824;49.336;8.652;2023-10-31T13:33:06;16.50;1.00
11536;DHT22;5824;49.336;8.652;2023-10-31T13:35:33;16.50;1.00
11536;DHT22;5824;49.336;8.652;2023-10-31T13:37:59;16.40;1.00
11536;DHT22;5824;49.336;8.652;2023-10-31T13:40:26;16.40;1.00
11536;DHT22;5824;49.336;8.652;2023-10-31T13:42:51;16.50;1.00
11536;DHT22;5824;49.336;8.652;2023-10-31T13:45:17;16.60;1.00
11536;DHT22;5824;49.336;8.652;2023-10-31T13:47:42;16.90;1.00
11536;DHT22;5824;49.336;8.652;2023-10-31T13:50:08;17.00;1.00
11536;DHT22;5824;49.336;8.652;2023-10-31T13:52:34;17.20;1.00
11536;DHT22;5824;49.336;8.652;2023-10-31T13:54:59;17.20;1.00
11536;DHT22;5824;49.336;8.652;2023-10-31T13:57:25;17.30;1.00
11536;DHT22;5824;49.336;8.652;2023-10-31T13:59:50;17.20;1.00
11536;DHT22;5824;49.336;8.652;2023-10-31T14:02:16;17.20;1.00
11536;DHT22;5824;49.336;8.652;2023-10-31T14:04:42;16.90;1.00
11536;DHT22;5824;49.336;8.652;2023-10-31T14:07:08;16.70;1.00
11536;DHT22;5824;49.336;8.652;2023-10-31T14:09:33;16.70;1.00
11536;DHT22;5824;49.336;8.652;2023-10-31T14:11:59;16.60;1.00
11536;DHT22;5824;49.336;8.652;2023-10-31T14:14:24;16.60;1.00
11536;DHT22;5824;49.336;8.652;2023-10-31T14:16:50;16.70;1.00
11536;DHT22;5824;49.336;8.652;2023-10-31T14:19:16;16.60;1.00
11536;DHT22;5824;49.336;8.652;2023-10-31T14:21:41;16.60;1.00
11536;DHT22;5824;49.336;8.652;2023-10-31T14:24:07;16.50;1.00
11536;DHT22;5824;49.336;8.652;2023-10-31T14:26:34;16.00;1.00
11536;DHT22;5824;49.336;8.652;2023-10-31T14:29:00;16.00;1.00
11536;DHT22;5824;49.336;8.652;2023-10-31T14:31:25;15.90;1.00
11536;DHT22;5824;49.336;8.652;2023-10-31T14:33:51;15.70;1.00
11536;DHT22;5824;49.336;8.652;2023-10-31T14:36:16;15.40;1.00
11536;DHT22;5824;49.336;8.652;2023-10-31T14:38:42;15.40;1.00
11536;DHT22;5824;49.336;8.652;2023-10-31T14:41:08;15.30;1.00
11536;DHT22;5824;49.336;8.652;2023-10-31T14:43:34;15.20;1.00
11536;DHT22;5824;49.336;8.652;2023-10-31T14:46:01;15.10;1.00
11536;DHT22;5824;49.336;8.652;2023-10-31T14:48:26;14.70;1.00
11536;DHT22;5824;49.336;8.652;2023-10-31T14:50:52;14.50;1.00
11536;DHT22;5824;49.336;8.652;2023-10-31T14:53:18;14.30;1.00
11536;DHT22;5824;49.336;8.652;2023-10-31T14:55:46;14.00;1.00
11536;DHT22;5824;49.336;8.652;2023-10-31T14:58:12;13.90;1.00
11536;DHT22;5824;49.336;8.652;2023-10-31T15:00:38;13.70;1.00
11536;DHT22;5824;49.336;8.652;2023-10-31T15:03:04;13.60;1.00
11536;DHT22;5824;49.336;8.652;2023-10-31T15:05:30;13.50;1.00
11536;DHT22;5824;49.336;8.652;2023-10-31T15:07:56;13.50;1.00
11536;DHT22;5824;49.336;8.652;2023-10-31T15:10:23;13.40;1.00
11536;DHT22;5824;49.336;8.652;2023-10-31T15:12:48;13.50;1.00
11536;DHT22;5824;49.336;8.652;2023-10-31T15:15:15;13.40;1.00
11536;DHT22;5824;49.336;8.652;2023-10-31T15:17:40;13.30;1.00
11536;DHT22;5824;49.336;8.652;2023-10-31T15:20:07;13.30;1.00
11536;DHT22;5824;49.336;8.652;2023-10-31T15:22:35;13.30;1.00
11536;DHT22;5824;49.336;8.652;2023-10-31T15:25:01;13.30;1.00
11536;DHT22;5824;49.336;8.652;2023-10-31T15:27:26;13.20;1.00
11536;DHT22;5824;49.336;8.652;2023-10-31T15:29:52;13.20;1.00
11536;DHT22;5824;49.336;8.652;2023-10-31T15:32:18;13.20;1.00
11536;DHT22;5824;49.336;8.652;2023-10-31T15:34:43;13.20;1.00
11536;DHT22;5824;49.336;8.652;2023-10-31T15:37:09;13.10;1.00
11536;DHT22;5824;49.336;8.652;2023-10-31T15:39:37;13.10;1.00
11536;DHT22;5824;49.336;8.652;2023-10-31T15:42:02;13.10;1.00
11536;DHT22;5824;49.336;8.652;2023-10-31T15:44:28;13.10;1.00
11536;DHT22;5824;49.336;8.652;2023-10-31T15:46:53;13.00;1.00
11536;DHT22;5824;49.336;8.652;2023-10-31T15:49:19;13.00;1.00
11536;DHT22;5824;49.336;8.652;2023-10-31T15:51:44;13.00;1.00
11536;DHT22;5824;49.336;8.652;2023-10-31T15:54:10;13.00;1.00
11536;DHT22;5824;49.336;8.652;2023-10-31T15:59:01;13.00;1.00
11536;DHT22;5824;49.336;8.652;2023-10-31T16:01:27;13.00;1.00
11536;DHT22;5824;49.336;8.652;2023-10-31T16:03:53;13.00;1.00